createdAt,value
2022-12-31T11:57:34.000Z,984.28
2022-12-31T12:57:37.000Z,983.54
2022-12-31T13:12:15.000Z,983.33
2022-12-31T13:26:50.000Z,983.60
2022-12-31T13:41:27.000Z,983.82
2022-12-31T13:56:05.000Z,983.70
2022-12-31T14:10:41.000Z,983.82
2022-12-31T14:25:15.000Z,983.74
2022-12-31T14:39:49.000Z,983.82
2022-12-31T14:54:25.000Z,983.82
2022-12-31T15:09:02.000Z,983.80
2022-12-31T15:23:40.000Z,983.88
2022-12-31T15:38:17.000Z,984.08
2022-12-31T15:52:55.000Z,984.34
2022-12-31T16:07:34.000Z,984.38
2022-12-31T16:36:46.000Z,984.43
2022-12-31T16:51:20.000Z,984.39
2022-12-31T17:05:52.000Z,984.34
2022-12-31T17:20:30.000Z,984.35
2022-12-31T17:49:44.000Z,984.57
2022-12-31T18:04:23.000Z,984.60
2022-12-31T18:19:00.000Z,984.64
2022-12-31T18:33:39.000Z,984.61
2022-12-31T18:48:18.000Z,984.65
2022-12-31T19:02:57.000Z,984.69
2022-12-31T19:17:36.000Z,984.67
2022-12-31T19:32:15.000Z,984.79
2022-12-31T19:46:53.000Z,984.82
2022-12-31T20:01:31.000Z,984.90
2022-12-31T20:16:13.000Z,984.84
2022-12-31T20:30:45.000Z,984.97
2022-12-31T20:45:15.000Z,985.15
2022-12-31T20:59:54.000Z,985.16
2022-12-31T21:14:32.000Z,985.24
2022-12-31T21:29:11.000Z,985.48
2022-12-31T21:43:50.000Z,985.68
2022-12-31T21:58:26.000Z,985.81
2022-12-31T22:13:04.000Z,986.15
2022-12-31T22:27:34.000Z,986.13
2022-12-31T22:42:13.000Z,986.16
2022-12-31T22:56:51.000Z,986.18
2022-12-31T23:11:23.000Z,986.21
2022-12-31T23:25:53.000Z,986.19
2022-12-31T23:40:31.000Z,986.04
2022-12-31T23:55:05.000Z,986.02
